首页
METAR-TAF:

METAR-TAF

机场 :

麦卡伦国际机场

拉斯维加斯, 内华达州, 美国

纬度: 36-04-44N, 经度: 115-09-19W, 海拔: 663米

当前天气观测

该预报发布于46分钟前的22:56 UTC
风速12节,风向西南,有时为24节阵风,在西转西南之间变化
温度 28°C
湿度 13%
气压 1001 hPa
能見度: 16.1公里
少量云层高于18000英尺
少量云层高于25000英尺
附近有, , 浮尘

METAR: KLAS 172256Z 22012G24KT 180V240 10SM VCBLDU FEW180 FEW250 28/M03 A2957 RMK AO2 PK WND 22032/2225 SLP991 T02831033

时间: 16:42 (23:42 UTC)

预报

该预报发布于22分钟前的23:20 UTC
预报有效从18日的 00点(UTC)到 19日的 06点(UTC)
风速20节,风向南转西南,有时为35节阵风
能見度: 10公里
少量云层高于14000英尺
多云层高于20000英尺
从 18日的 0400点(UTC)
风速10节,风向南转西南,有时为18节阵风
能見度: 10公里
少量云层高于25000英尺
从 18日的 0700点(UTC)
风速15节,风向北转西北,有时为25节阵风
能見度: 10公里
少量云层高于12000英尺
少量云层高于20000英尺
从 18日的 1700点(UTC)
风速12节,风向,有时为20节阵风
能見度: 10公里
散云层高于25000英尺
从 18日的 2100点(UTC)
风速10节,风向
能見度: 10公里
少量云层高于25000英尺

TAF: KLAS 172320Z 1800/1906 21020G35KT P6SM FEW140 BKN200 FM180400 21010G18KT P6SM FEW250 FM180700 33015G25KT P6SM FEW120 FEW200 FM181700 35012G20KT P6SM SCT250 FM182100 35010KT P6SM FEW250

超过4000个机场的气象观测和天气预报(METAR&TAF报告)。

可查询的气象台以黄色和红色小点在地图上表示。

将鼠标移到小点上方,可查看气象台名称。

然后点击查看天气观测和预报。

如需切换地图:点击带黑十字的绿色按钮放大地图;点击带横线的绿色按钮缩小地图;或者点击绿色箭头查看邻近地区的地图。


METAR-TAF: